Time;durP1;ratioP1;P1;durP2;ratioP2;P2;SDS_P1;SDS_P2;PMS_P1;PMS_P2;Temp;Humidity;BMP_temperature;BMP_pressure;BME280_temperature;BME280_humidity;BME280_pressure;Samples;Min_cycle;Max_cycle;Signal;HPM_P1;HPM_P2
2023/01/18 00:01:21;;;;;;;13.00;6.80;;;;;;;6.90;93.80;96924.25;110435;1272;22260;-75
2023/01/18 00:03:49;;;;;;;14.40;7.10;;;;;;;6.93;93.78;96937.22;110445;1275;22527;-76
2023/01/18 00:06:17;;;;;;;20.70;6.80;;;;;;;6.92;93.55;96937.94;110507;1275;23291;-75
2023/01/18 00:08:45;;;;;;;18.00;7.10;;;;;;;6.89;94.61;96940.34;110460;1275;22385;-76
2023/01/18 00:11:15;;;;;;;15.50;5.60;;;;;;;6.91;94.27;96941.11;110471;1275;22345;-74
2023/01/18 00:13:44;;;;;;;17.10;6.10;;;;;;;6.91;95.05;96939.20;110440;1275;22296;-76
2023/01/18 00:16:14;;;;;;;9.90;5.40;;;;;;;6.94;95.40;96935.98;110432;1275;22207;-75
2023/01/18 00:18:49;;;;;;;10.90;5.80;;;;;;;6.96;94.97;96930.52;110396;1275;22251;-76
2023/01/18 00:21:17;;;;;;;12.30;6.10;;;;;;;7.01;95.08;96935.99;110192;1275;22210;-76
2023/01/18 00:23:45;;;;;;;13.90;6.90;;;;;;;7.06;95.09;96947.51;110410;1275;22198;-76
2023/01/18 00:26:14;;;;;;;13.10;6.80;;;;;;;7.10;95.23;96951.09;110460;1275;22244;-77
2023/01/18 00:28:42;;;;;;;16.90;7.40;;;;;;;7.12;95.33;96940.85;110215;1268;22305;-75
2023/01/18 00:31:15;;;;;;;13.30;7.10;;;;;;;7.12;94.77;96950.30;110379;1275;22183;-76
2023/01/18 00:33:48;;;;;;;12.50;6.90;;;;;;;7.13;94.43;96947.86;108766;1275;22651;-76
2023/01/18 00:36:17;;;;;;;14.20;7.40;;;;;;;7.07;94.26;96956.04;107526;1268;23828;-75
2023/01/18 00:38:50;;;;;;;19.00;8.20;;;;;;;7.04;94.06;96952.39;107581;1275;24254;-76
2023/01/18 00:41:20;;;;;;;18.00;8.50;;;;;;;6.98;94.51;96944.71;110367;1275;22223;-75
2023/01/18 00:43:52;;;;;;;16.30;8.40;;;;;;;6.96;94.70;96952.94;110520;1275;22348;-75
2023/01/18 00:46:26;;;;;;;15.00;7.50;;;;;;;6.94;94.63;96962.30;110355;1275;22913;-76
2023/01/18 00:48:56;;;;;;;14.40;7.00;;;;;;;6.91;94.18;96965.02;110448;1275;22390;-76
2023/01/18 00:51:24;;;;;;;14.20;6.50;;;;;;;6.88;94.29;96963.11;110466;1275;22288;-75
2023/01/18 00:53:52;;;;;;;13.50;6.60;;;;;;;6.86;94.82;96966.63;110422;1275;22303;-76
2023/01/18 00:56:22;;;;;;;15.60;6.20;;;;;;;6.86;94.21;96964.25;110379;1275;22855;-76
2023/01/18 00:58:50;;;;;;;12.30;5.60;;;;;;;6.84;93.09;96953.65;110411;1275;22186;-75
2023/01/18 01:01:18;;;;;;;11.80;6.30;;;;;;;6.79;93.63;96950.43;109584;1275;22478;-77
2023/01/18 01:06:43;;;;;;;13.20;6.40;;;;;;;6.74;94.63;96940.81;108247;1275;24225;-80
2023/01/18 01:09:18;;;;;;;11.70;6.00;;;;;;;6.76;94.54;96946.76;110481;1275;22293;-75
2023/01/18 01:28:40;;;;;;;10.50;5.40;;;;;;;7.01;96.57;96970.30;107443;1253;25597;-74
2023/01/18 01:31:13;;;;;;;8.10;4.60;;;;;;;7.01;96.42;96963.56;107337;1254;25297;-75
2023/01/18 01:33:42;;;;;;;7.70;4.10;;;;;;;7.04;96.55;96954.13;110440;1275;22345;-75
2023/01/18 01:36:14;;;;;;;8.40;4.80;;;;;;;7.07;96.31;96955.20;110465;1275;22818;-76
2023/01/18 01:38:43;;;;;;;9.60;4.90;;;;;;;7.10;96.78;96954.87;110432;1275;22358;-75
2023/01/18 01:41:24;;;;;;;14.70;5.20;;;;;;;7.17;96.80;96947.71;110368;1275;22199;-75
2023/01/18 01:43:57;;;;;;;9.90;4.80;;;;;;;7.23;96.83;96936.77;110346;1275;22334;-75
2023/01/18 01:46:58;;;;;;;8.30;5.00;;;;;;;7.27;96.82;96925.16;110340;1275;22288;-75
2023/01/18 01:49:38;;;;;;;11.70;5.30;;;;;;;7.29;96.62;96916.96;110262;1273;22364;-75
2023/01/18 01:52:10;;;;;;;10.50;5.90;;;;;;;7.32;96.51;96914.95;110457;1275;22117;-76
2023/01/18 01:54:44;;;;;;;12.00;6.50;;;;;;;7.34;96.40;96917.09;110440;1270;22158;-75
2023/01/18 01:57:15;;;;;;;13.50;6.10;;;;;;;7.32;96.08;96911.81;110462;1275;22211;-75
2023/01/18 01:59:51;;;;;;;11.50;6.60;;;;;;;7.28;95.75;96924.93;110385;1269;22309;-76
2023/01/18 02:02:19;;;;;;;12.20;6.00;;;;;;;7.23;95.82;96919.70;110442;1275;22174;-76
2023/01/18 02:04:52;;;;;;;14.00;6.50;;;;;;;7.16;95.71;96918.23;110434;1272;22282;-75
2023/01/18 02:07:22;;;;;;;15.20;6.50;;;;;;;7.06;96.02;96919.24;108502;1275;26094;-75
2023/01/18 02:09:52;;;;;;;12.50;6.00;;;;;;;7.00;95.95;96909.23;107481;1254;22523;-75
2023/01/18 02:12:25;;;;;;;15.00;6.50;;;;;;;6.96;96.46;96909.70;108673;1263;24259;-75
2023/01/18 02:14:59;;;;;;;12.70;6.50;;;;;;;6.91;96.58;96903.55;107499;1275;24195;-75
2023/01/18 02:17:46;;;;;;;11.50;6.30;;;;;;;6.84;96.67;96906.11;108194;1266;22661;-75
2023/01/18 02:20:54;;;;;;;14.70;6.90;;;;;;;6.74;95.89;96902.96;107973;1275;22713;-75
2023/01/18 02:23:45;;;;;;;16.90;6.50;;;;;;;6.63;97.33;96900.67;106966;1275;694934;-75
2023/01/18 02:26:53;;;;;;;16.80;7.00;;;;;;;6.58;97.30;96892.29;107420;1275;22526;-75
2023/01/18 02:29:25;;;;;;;13.40;6.70;;;;;;;6.53;97.11;96891.30;107376;1272;22558;-76
2023/01/18 02:31:59;;;;;;;10.60;5.80;;;;;;;6.49;97.09;96888.38;107465;1275;24216;-75
2023/01/18 02:34:37;;;;;;;11.70;5.90;;;;;;;6.49;97.30;96890.79;107418;1275;22618;-76
2023/01/18 02:37:47;;;;;;;15.60;6.20;;;;;;;6.50;96.64;96892.31;107436;1275;26079;-76
2023/01/18 02:40:21;;;;;;;13.40;7.20;;;;;;;6.50;96.81;96891.96;107432;1275;25031;-75
2023/01/18 02:48:37;;;;;;;13.90;7.00;;;;;;;6.52;98.07;96889.98;107379;1275;22559;-75
2023/01/18 02:51:09;;;;;;;12.90;7.00;;;;;;;6.55;97.94;96880.21;107425;1275;24222;-76
2023/01/18 02:53:42;;;;;;;17.40;7.60;;;;;;;6.55;97.60;96871.25;107452;1275;22531;-75
2023/01/18 02:56:15;;;;;;;11.40;6.40;;;;;;;6.52;97.41;96867.95;107482;1275;22609;-75
2023/01/18 02:58:48;;;;;;;12.80;6.40;;;;;;;6.49;97.42;96874.41;107405;1275;25401;-75
2023/01/18 03:01:25;;;;;;;13.70;6.10;;;;;;;6.50;97.59;96877.86;107509;1275;25473;-75
2023/01/18 03:04:00;;;;;;;9.10;5.40;;;;;;;6.49;97.60;96865.84;110422;1275;22277;-76
2023/01/18 03:06:29;;;;;;;15.20;6.40;;;;;;;6.46;97.35;96861.81;110428;1272;23027;-76
2023/01/18 03:09:02;;;;;;;12.50;6.00;;;;;;;6.45;97.17;96857.95;110447;1275;22377;-76
2023/01/18 03:11:44;;;;;;;12.50;5.70;;;;;;;6.45;97.28;96863.95;110392;1275;22287;-75
2023/01/18 03:14:31;;;;;;;14.10;6.50;;;;;;;6.45;97.43;96864.65;110388;1275;22357;-75
2023/01/18 03:17:10;;;;;;;15.60;6.90;;;;;;;6.41;97.61;96868.09;110437;1275;22357;-76
2023/01/18 03:20:08;;;;;;;12.50;6.80;;;;;;;6.35;97.92;96870.91;110448;1275;22222;-76
2023/01/18 03:25:36;;;;;;;15.00;7.10;;;;;;;6.17;99.07;96860.68;110393;1275;22283;-75
2023/01/18 03:33:58;;;;;;;11.80;6.20;;;;;;;5.94;100.00;96872.83;107416;1275;22527;-75
2023/01/18 03:36:31;;;;;;;14.00;6.20;;;;;;;5.91;100.00;96877.27;107310;1275;23009;-75
2023/01/18 03:39:04;;;;;;;12.60;6.10;;;;;;;5.89;100.00;96873.38;107126;1275;22583;-76
2023/01/18 03:41:38;;;;;;;15.40;6.60;;;;;;;5.91;100.00;96876.39;107272;1275;24449;-75
2023/01/18 03:44:28;;;;;;;11.90;7.10;;;;;;;5.93;100.00;96878.37;107235;1275;22547;-76
2023/01/18 03:46:56;;;;;;;15.20;7.10;;;;;;;5.95;100.00;96881.05;110489;1275;22191;-76
2023/01/18 03:49:26;;;;;;;13.20;7.50;;;;;;;5.97;100.00;96872.36;110435;1275;22164;-75
2023/01/18 03:52:18;;;;;;;13.30;6.30;;;;;;;6.01;100.00;96878.08;110440;1275;22215;-76
2023/01/18 03:55:01;;;;;;;13.40;7.00;;;;;;;6.05;99.92;96886.00;110447;1270;22248;-76
2023/01/18 03:57:37;;;;;;;13.50;6.70;;;;;;;6.05;99.73;96885.10;110500;1275;22163;-75
2023/01/18 04:00:08;;;;;;;13.90;7.30;;;;;;;6.08;99.93;96878.11;110222;1266;22262;-75
2023/01/18 04:02:43;;;;;;;13.60;7.10;;;;;;;6.11;99.52;96874.55;110463;1275;23628;-75
2023/01/18 04:05:12;;;;;;;14.90;7.30;;;;;;;6.09;99.21;96884.10;110428;1275;22176;-75
2023/01/18 04:07:41;;;;;;;15.20;7.80;;;;;;;6.09;98.90;96892.20;110458;1272;22208;-75
2023/01/18 04:10:10;;;;;;;16.50;7.90;;;;;;;6.11;98.96;96901.57;110429;1256;22289;-75
2023/01/18 04:12:38;;;;;;;21.10;8.50;;;;;;;6.09;99.51;96911.64;110447;1275;22320;-75
2023/01/18 04:15:07;;;;;;;22.40;8.90;;;;;;;6.03;99.53;96912.02;110475;1273;22268;-76
2023/01/18 04:17:35;;;;;;;17.70;8.10;;;;;;;6.01;99.74;96912.98;110472;1275;22271;-75
2023/01/18 04:20:03;;;;;;;17.50;8.40;;;;;;;5.98;99.95;96911.75;110411;1273;22188;-75
2023/01/18 04:22:32;;;;;;;18.70;9.20;;;;;;;5.95;100.00;96910.79;108987;1275;22549;-80
2023/01/18 04:25:00;;;;;;;17.40;9.90;;;;;;;5.95;100.00;96909.77;108351;1275;25336;-81
2023/01/18 04:27:28;;;;;;;21.10;10.40;;;;;;;5.95;99.99;96907.19;108416;1275;23344;-79
2023/01/18 04:29:57;;;;;;;29.40;15.70;;;;;;;5.93;100.00;96896.75;108169;1275;22599;-77
2023/01/18 04:32:27;;;;;;;68.20;26.40;;;;;;;5.93;100.00;96904.67;107601;1257;22510;-78
2023/01/18 04:34:56;;;;;;;25.90;12.80;;;;;;;5.91;99.84;96908.22;107522;1275;24894;-78
2023/01/18 04:37:29;;;;;;;22.50;11.70;;;;;;;5.87;100.00;96903.03;107451;1275;23704;-78
2023/01/18 04:39:58;;;;;;;24.10;13.20;;;;;;;5.82;99.08;96898.25;107584;1275;25338;-77
2023/01/18 04:42:29;;;;;;;29.50;13.70;;;;;;;5.76;99.25;96888.52;107526;1267;23703;-77
2023/01/18 04:44:58;;;;;;;25.70;13.70;;;;;;;5.72;99.20;96895.73;107556;1275;23007;-77
2023/01/18 04:47:27;;;;;;;23.10;11.00;;;;;;;5.68;98.76;96896.58;107480;1263;25284;-77
2023/01/18 04:49:59;;;;;;;23.70;11.20;;;;;;;5.64;98.61;96899.16;107518;1275;22607;-77
2023/01/18 04:52:31;;;;;;;23.60;12.20;;;;;;;5.62;99.77;96903.20;107510;1266;22542;-77
2023/01/18 04:54:59;;;;;;;25.30;12.50;;;;;;;5.61;99.99;96904.42;107489;1260;23272;-77
2023/01/18 04:57:27;;;;;;;29.50;14.20;;;;;;;5.62;100.00;96897.02;107484;1275;22683;-77
2023/01/18 04:59:56;;;;;;;24.80;12.80;;;;;;;5.63;99.91;96892.34;107424;1275;22544;-77
2023/01/18 05:02:24;;;;;;;22.00;12.10;;;;;;;5.63;99.95;96887.02;107505;1275;23673;-77
2023/01/18 05:04:52;;;;;;;20.50;11.60;;;;;;;5.65;100.00;96887.45;107481;1275;22523;-77
2023/01/18 05:07:24;;;;;;;23.90;11.20;;;;;;;5.66;99.89;96889.60;107429;1269;22516;-77
2023/01/18 05:09:57;;;;;;;29.80;13.30;;;;;;;5.67;99.70;96889.73;107436;1275;24254;-77
2023/01/18 05:12:27;;;;;;;24.60;11.30;;;;;;;5.68;99.09;96871.14;107458;1275;25343;-77
2023/01/18 05:14:55;;;;;;;31.50;14.30;;;;;;;5.66;99.31;96884.48;107486;1275;24320;-78
2023/01/18 05:17:29;;;;;;;41.80;19.70;;;;;;;5.66;99.20;96894.44;107448;1275;22589;-77
2023/01/18 05:19:57;;;;;;;33.30;17.10;;;;;;;5.66;99.33;96886.34;107398;1275;22540;-77
2023/01/18 05:22:26;;;;;;;41.80;20.00;;;;;;;5.67;99.51;96886.30;107475;1273;25324;-77
2023/01/18 05:24:55;;;;;;;52.00;20.30;;;;;;;5.68;99.61;96891.23;107473;1275;22718;-77
2023/01/18 05:27:23;;;;;;;37.70;18.40;;;;;;;5.72;99.85;96896.94;107504;1275;23197;-77
2023/01/18 05:29:51;;;;;;;41.70;19.30;;;;;;;5.74;99.55;96910.27;107464;1275;23925;-77
2023/01/18 05:32:19;;;;;;;46.40;22.50;;;;;;;5.73;99.47;96912.87;107331;1275;25486;-78
2023/01/18 05:34:48;;;;;;;51.10;24.10;;;;;;;5.76;99.67;96913.79;107536;1273;25641;-74
2023/01/18 05:37:18;;;;;;;56.60;27.30;;;;;;;5.79;99.82;96918.66;107471;1275;22556;-74
2023/01/18 05:39:47;;;;;;;53.00;23.80;;;;;;;5.79;99.47;96920.73;107488;1275;23401;-75
2023/01/18 05:42:18;;;;;;;54.00;24.10;;;;;;;5.76;99.46;96923.08;107477;1275;22635;-75
2023/01/18 05:44:46;;;;;;;58.60;24.60;;;;;;;5.73;99.98;96917.52;107331;1264;22520;-78
2023/01/18 05:47:15;;;;;;;44.40;21.10;;;;;;;5.69;100.00;96927.14;107563;1275;22577;-79
2023/01/18 05:49:43;;;;;;;37.60;19.00;;;;;;;5.64;100.00;96928.38;107367;1275;22679;-74
2023/01/18 05:52:13;;;;;;;28.90;14.90;;;;;;;5.63;100.00;96931.33;107548;1275;22539;-77
2023/01/18 05:54:44;;;;;;;31.20;14.80;;;;;;;5.63;100.00;96938.73;107472;1273;25932;-77
2023/01/18 05:57:13;;;;;;;44.20;19.60;;;;;;;5.65;100.00;96938.32;107645;1270;22539;-77
2023/01/18 05:59:41;;;;;;;45.20;16.40;;;;;;;5.68;100.00;96943.51;107557;1275;23179;-79
2023/01/18 06:02:09;;;;;;;37.60;16.80;;;;;;;5.72;100.00;96935.77;107521;1276;22587;-77
2023/01/18 06:04:38;;;;;;;44.80;19.00;;;;;;;5.78;100.00;96937.10;107571;1267;24057;-76
2023/01/18 06:07:08;;;;;;;43.70;19.00;;;;;;;5.85;100.00;96931.48;107565;1275;22674;-77
2023/01/18 06:09:36;;;;;;;34.60;14.70;;;;;;;5.91;100.00;96935.36;107590;1275;22578;-77
2023/01/18 06:12:05;;;;;;;32.70;15.80;;;;;;;5.96;100.00;96941.19;107622;1275;22540;-74
2023/01/18 06:14:33;;;;;;;33.90;15.20;;;;;;;6.04;100.00;96947.92;107535;1260;25278;-77
2023/01/18 06:17:01;;;;;;;34.80;15.20;;;;;;;6.11;100.00;96950.92;107485;1273;22581;-78
2023/01/18 06:19:32;;;;;;;42.10;18.40;;;;;;;6.16;100.00;96951.22;107644;1275;22591;-81
2023/01/18 06:22:03;;;;;;;39.80;16.30;;;;;;;6.19;100.00;96962.80;107417;1274;22729;-77
2023/01/18 06:24:31;;;;;;;36.70;18.00;;;;;;;6.23;100.00;96951.97;107498;1275;23044;-78
2023/01/18 06:27:01;;;;;;;38.20;16.40;;;;;;;6.26;100.00;96951.66;107552;1272;22535;-77
2023/01/18 06:29:30;;;;;;;37.50;17.80;;;;;;;6.31;100.00;96951.95;107520;1275;24298;-77
2023/01/18 06:31:58;;;;;;;29.90;15.30;;;;;;;6.37;100.00;96953.07;107412;1275;22553;-77
2023/01/18 06:34:26;;;;;;;24.20;14.30;;;;;;;6.42;100.00;96944.63;107410;1275;24266;-77
2023/01/18 06:36:57;;;;;;;30.50;16.50;;;;;;;6.46;100.00;96948.21;107376;1275;24218;-78
2023/01/18 06:39:25;;;;;;;26.50;13.90;;;;;;;6.53;100.00;96952.58;107391;1273;22668;-75
2023/01/18 06:41:53;;;;;;;30.00;15.00;;;;;;;6.57;100.00;96943.63;107513;1275;25959;-77
2023/01/18 06:44:22;;;;;;;43.30;19.00;;;;;;;6.63;100.00;96936.52;107531;1275;22523;-77
2023/01/18 06:46:50;;;;;;;32.70;14.00;;;;;;;6.67;100.00;96933.02;107429;1275;25695;-77
2023/01/18 06:49:19;;;;;;;25.40;13.00;;;;;;;6.73;100.00;96940.71;107498;1273;22530;-77
2023/01/18 06:51:50;;;;;;;35.10;15.40;;;;;;;6.76;100.00;96942.83;107587;1272;22575;-79
2023/01/18 06:54:20;;;;;;;42.00;19.40;;;;;;;6.80;100.00;96952.10;107529;1275;25529;-77
2023/01/18 06:56:48;;;;;;;53.30;22.30;;;;;;;6.83;100.00;96959.36;107518;1275;25280;-76
2023/01/18 06:59:16;;;;;;;41.00;19.80;;;;;;;6.86;100.00;96961.80;107591;1274;23810;-76
2023/01/18 07:01:45;;;;;;;39.30;18.10;;;;;;;6.88;100.00;96964.98;107633;1269;25227;-78
2023/01/18 07:04:17;;;;;;;28.80;14.10;;;;;;;6.88;100.00;96970.14;107669;1275;22729;-77
2023/01/18 07:06:45;;;;;;;29.20;14.20;;;;;;;6.86;99.92;96967.66;107553;1275;22517;-76
2023/01/18 07:09:13;;;;;;;26.20;13.20;;;;;;;6.85;99.76;96971.66;107655;1275;22553;-82
2023/01/18 07:11:42;;;;;;;48.10;19.60;;;;;;;6.84;99.91;96978.77;107455;1274;24212;-76
2023/01/18 07:14:11;;;;;;;39.80;15.60;;;;;;;6.85;99.81;96983.38;107631;1275;25422;-78
2023/01/18 07:16:40;;;;;;;37.40;16.10;;;;;;;6.88;99.73;96999.43;107441;1275;25230;-77
2023/01/18 07:19:08;;;;;;;39.90;16.60;;;;;;;6.91;99.95;97000.36;107682;1275;22770;-76
2023/01/18 07:21:39;;;;;;;44.50;18.80;;;;;;;6.94;100.00;97002.27;107475;1275;22549;-75
2023/01/18 07:24:08;;;;;;;25.90;12.90;;;;;;;7.00;100.00;97009.59;107598;1275;23912;-76
2023/01/18 07:26:36;;;;;;;32.90;14.50;;;;;;;7.05;100.00;97020.94;107519;1275;23894;-76
2023/01/18 07:29:04;;;;;;;34.00;14.40;;;;;;;7.09;100.00;97038.49;107643;1267;22658;-76
2023/01/18 07:31:32;;;;;;;27.20;12.70;;;;;;;7.13;100.00;97024.34;107494;1275;22475;-76
2023/01/18 07:34:01;;;;;;;27.50;13.20;;;;;;;7.18;100.00;97032.73;107432;1275;22527;-76
2023/01/18 07:36:29;;;;;;;25.80;12.30;;;;;;;7.24;100.00;97045.41;107452;1275;24250;-77
2023/01/18 07:39:00;;;;;;;23.30;12.40;;;;;;;7.29;100.00;97062.08;107482;1275;22579;-77
2023/01/18 07:41:28;;;;;;;27.90;13.80;;;;;;;7.35;100.00;97069.05;107514;1275;23336;-77
2023/01/18 07:43:58;;;;;;;25.70;12.40;;;;;;;7.41;100.00;97066.73;107741;1275;24196;-78
2023/01/18 07:46:26;;;;;;;22.50;12.00;;;;;;;7.46;100.00;97079.23;107624;1275;23238;-81
2023/01/18 07:48:57;;;;;;;30.40;13.50;;;;;;;7.50;100.00;97087.83;107711;1273;24339;-76
2023/01/18 07:51:29;;;;;;;27.60;13.10;;;;;;;7.55;100.00;97074.70;107596;1267;25431;-79
2023/01/18 07:53:57;;;;;;;26.30;13.70;;;;;;;7.60;100.00;97064.30;107490;1253;22641;-76
2023/01/18 07:56:26;;;;;;;58.00;22.40;;;;;;;7.66;100.00;97064.89;107570;1275;25335;-77
2023/01/18 07:58:54;;;;;;;101.20;39.60;;;;;;;7.67;99.99;97048.66;107479;1263;22568;-77
2023/01/18 08:01:23;;;;;;;203.70;82.70;;;;;;;7.65;99.98;97051.98;107401;1275;25414;-77
2023/01/18 08:03:53;;;;;;;58.80;25.30;;;;;;;7.66;100.00;97067.15;107528;1272;23932;-76
2023/01/18 08:06:24;;;;;;;39.20;18.70;;;;;;;7.62;99.77;97075.95;107589;1275;22563;-76
2023/01/18 08:08:55;;;;;;;31.60;16.00;;;;;;;7.59;99.73;97067.99;110460;1275;23392;-79
2023/01/18 08:11:24;;;;;;;28.50;13.20;;;;;;;7.56;99.50;97075.01;110493;1275;22241;-77
2023/01/18 08:13:52;;;;;;;22.20;12.10;;;;;;;7.54;99.49;97069.05;110318;1276;22357;-76
2023/01/18 08:16:21;;;;;;;20.70;11.90;;;;;;;7.52;99.39;97052.39;110336;1275;23123;-76
2023/01/18 08:18:50;;;;;;;21.90;10.80;;;;;;;7.51;99.09;97057.30;110405;1275;22293;-76
2023/01/18 08:21:18;;;;;;;18.40;10.90;;;;;;;7.49;99.56;97062.04;110307;1275;22234;-77
2023/01/18 08:23:46;;;;;;;23.80;11.90;;;;;;;7.52;99.72;97060.86;110459;1275;22358;-76
2023/01/18 08:26:14;;;;;;;26.70;12.60;;;;;;;7.55;99.19;97062.64;110461;1275;22198;-77
2023/01/18 08:28:43;;;;;;;31.50;13.60;;;;;;;7.56;99.24;97057.40;110465;1267;22985;-77
2023/01/18 08:31:17;;;;;;;41.00;20.10;;;;;;;7.61;99.68;97057.02;110411;1275;22221;-77
2023/01/18 08:33:48;;;;;;;31.40;15.70;;;;;;;7.69;99.98;97065.11;110349;1275;23092;-79
2023/01/18 08:36:19;;;;;;;27.10;13.90;;;;;;;7.77;99.98;97063.19;110408;1275;22203;-77
2023/01/18 08:38:54;;;;;;;27.00;13.40;;;;;;;7.86;100.00;97067.25;110334;1270;22295;-76
2023/01/18 08:41:27;;;;;;;22.60;10.40;;;;;;;7.98;100.00;97066.33;110425;1273;22341;-77
2023/01/18 08:43:57;;;;;;;24.80;12.90;;;;;;;8.11;100.00;97068.34;109365;1275;22521;-77
2023/01/18 08:46:25;;;;;;;28.20;14.20;;;;;;;8.23;100.00;97068.43;107579;1275;23943;-78
2023/01/18 08:48:56;;;;;;;25.10;10.60;;;;;;;8.36;100.00;97081.61;107708;1275;24577;-79
2023/01/18 08:51:24;;;;;;;23.00;10.50;;;;;;;8.48;100.00;97077.44;109634;1275;22662;-77
2023/01/18 08:53:55;;;;;;;22.70;11.80;;;;;;;8.59;100.00;97077.08;107446;1275;23838;-76
2023/01/18 08:56:30;;;;;;;19.30;8.00;;;;;;;8.69;100.00;97081.95;107555;1275;25606;-78
2023/01/18 08:58:58;;;;;;;12.50;7.20;;;;;;;8.79;100.00;97089.21;107607;1275;22545;-76
2023/01/18 09:01:29;;;;;;;13.50;6.10;;;;;;;8.88;100.00;97092.71;107579;1267;23431;-77
2023/01/18 09:03:58;;;;;;;24.50;11.50;;;;;;;8.98;100.00;97081.88;107560;1275;24233;-77
2023/01/18 09:06:30;;;;;;;21.20;11.00;;;;;;;9.08;100.00;97091.03;107686;1266;22520;-78
2023/01/18 09:09:00;;;;;;;24.10;13.70;;;;;;;9.17;100.00;97085.08;107374;1275;22588;-77
2023/01/18 09:11:28;;;;;;;27.60;11.00;;;;;;;9.24;100.00;97100.42;110368;1266;22609;-76
2023/01/18 09:14:00;;;;;;;16.50;8.50;;;;;;;9.32;99.96;97099.66;110339;1266;22313;-77
2023/01/18 09:16:30;;;;;;;18.50;10.00;;;;;;;9.41;100.00;97105.09;110321;1267;22193;-77
2023/01/18 09:19:05;;;;;;;17.30;7.70;;;;;;;9.49;100.00;97111.56;110300;1275;22973;-75
2023/01/18 09:21:33;;;;;;;16.90;8.10;;;;;;;9.58;99.82;97102.46;110411;1269;22326;-77
2023/01/18 09:24:01;;;;;;;14.40;8.10;;;;;;;9.65;99.39;97100.33;110432;1267;22349;-75
2023/01/18 09:26:30;;;;;;;11.80;6.90;;;;;;;9.70;99.23;97113.39;110433;1275;22277;-76
2023/01/18 09:28:58;;;;;;;15.30;8.10;;;;;;;9.73;98.48;97095.29;110456;1275;23465;-75
2023/01/18 09:31:27;;;;;;;21.80;12.50;;;;;;;9.75;98.09;97092.55;110409;1267;22251;-74
2023/01/18 09:33:56;;;;;;;19.40;10.60;;;;;;;9.77;98.15;97106.66;110441;1275;22201;-75
2023/01/18 09:36:45;;;;;;;18.30;12.00;;;;;;;9.81;97.98;97113.71;110343;1270;22197;-75
2023/01/18 09:39:13;;;;;;;22.70;12.00;;;;;;;9.82;97.68;97119.89;110274;1275;25503;-75
2023/01/18 09:41:45;;;;;;;19.30;10.10;;;;;;;9.85;97.70;97121.44;107835;1275;22622;-77
2023/01/18 09:44:23;;;;;;;20.40;11.80;;;;;;;9.85;97.65;97130.45;110332;1275;22199;-75
2023/01/18 09:47:01;;;;;;;39.40;19.60;;;;;;;9.84;97.48;97130.15;110445;1275;23154;-75
2023/01/18 09:50:04;;;;;;;41.40;23.70;;;;;;;9.81;97.46;97129.98;110475;1269;22341;-75
2023/01/18 09:53:03;;;;;;;40.10;23.20;;;;;;;9.81;97.60;97123.07;110205;1275;22148;-75
2023/01/18 09:55:45;;;;;;;34.00;17.70;;;;;;;9.82;97.71;97116.27;110282;1275;22426;-76
2023/01/18 09:58:25;;;;;;;31.70;14.80;;;;;;;9.82;97.77;97116.79;110411;1275;23111;-76
2023/01/18 10:01:04;;;;;;;26.00;13.50;;;;;;;9.84;97.87;97116.31;108760;1269;24149;-75
2023/01/18 10:04:05;;;;;;;30.70;13.90;;;;;;;9.87;98.01;97119.23;108187;1275;22621;-77
2023/01/18 10:06:45;;;;;;;19.00;10.10;;;;;;;9.91;98.12;97115.61;107751;1275;25886;-77
2023/01/18 10:09:17;;;;;;;19.60;9.40;;;;;;;9.95;98.13;97118.80;107959;1267;24332;-74
2023/01/18 10:11:49;;;;;;;18.00;8.50;;;;;;;10.02;98.23;97120.38;108729;1267;23303;-75
2023/01/18 10:14:37;;;;;;;15.40;8.90;;;;;;;10.09;98.22;97127.09;108228;1275;22561;-76
2023/01/18 10:17:20;;;;;;;21.40;11.20;;;;;;;10.15;98.31;97131.71;107720;1272;22574;-75
2023/01/18 10:19:49;;;;;;;30.40;12.80;;;;;;;10.19;97.85;97128.27;107524;1275;25570;-77
2023/01/18 10:22:24;;;;;;;28.70;12.60;;;;;;;10.25;98.02;97139.88;110409;1275;22308;-75
2023/01/18 10:25:13;;;;;;;26.30;11.90;;;;;;;10.34;98.29;97148.23;110432;1275;22311;-75
2023/01/18 10:28:03;;;;;;;24.70;12.60;;;;;;;10.40;98.20;97163.35;107718;1275;27013;-75
2023/01/18 10:31:02;;;;;;;36.50;16.50;;;;;;;10.44;97.87;97184.55;107704;1267;25491;-77
2023/01/18 10:33:39;;;;;;;29.00;15.10;;;;;;;10.46;97.80;97200.23;110455;1267;22186;-75
2023/01/18 10:36:11;;;;;;;29.20;14.30;;;;;;;10.47;98.02;97216.32;110359;1275;22188;-75
2023/01/18 10:38:40;;;;;;;27.90;13.30;;;;;;;10.43;97.94;97212.18;110452;1275;23111;-75
2023/01/18 10:41:18;;;;;;;27.80;14.40;;;;;;;10.41;97.94;97207.77;110291;1275;22234;-75
2023/01/18 10:43:49;;;;;;;18.10;9.30;;;;;;;10.37;98.05;97208.00;110324;1275;22358;-75
2023/01/18 10:46:20;;;;;;;33.90;17.70;;;;;;;10.41;96.92;97221.85;110288;1276;22263;-76
2023/01/18 10:48:51;;;;;;;38.10;17.90;;;;;;;10.48;98.17;97192.80;110244;1261;22584;-75
2023/01/18 10:51:34;;;;;;;39.20;17.50;;;;;;;10.61;98.65;97175.48;110303;1266;22252;-76
2023/01/18 10:54:24;;;;;;;32.00;14.30;;;;;;;10.71;98.50;97180.13;110328;1275;22234;-75
2023/01/18 10:57:04;;;;;;;26.10;13.50;;;;;;;10.84;98.44;97178.04;110311;1275;22218;-75
2023/01/18 10:59:38;;;;;;;24.50;12.90;;;;;;;10.94;98.44;97181.44;110437;1267;22260;-75
2023/01/18 11:02:22;;;;;;;25.90;14.10;;;;;;;11.04;98.42;97174.14;110312;1261;22268;-75
2023/01/18 11:04:56;;;;;;;;;;;;;;;11.10;98.08;97171.33;110487;1271;22470;-76
2023/01/18 11:07:26;;;;;;;18.90;8.30;;;;;;;11.14;97.22;97180.95;110431;1275;22272;-76
2023/01/18 11:09:58;;;;;;;16.20;7.80;;;;;;;11.17;95.04;97202.84;110343;1273;23298;-76
2023/01/18 11:12:43;;;;;;;14.60;6.40;;;;;;;11.17;93.33;97231.11;110455;1269;22177;-76
2023/01/18 11:15:14;;;;;;;16.40;7.00;;;;;;;11.16;93.64;97257.31;110448;1275;22953;-75
2023/01/18 11:17:59;;;;;;;9.00;3.80;;;;;;;11.07;94.03;97270.47;110447;1275;22249;-76
2023/01/18 11:20:39;;;;;;;4.80;1.60;;;;;;;11.05;90.96;97278.95;110350;1275;22238;-76
2023/01/18 11:23:13;;;;;;;2.50;1.20;;;;;;;10.97;88.77;97279.17;110457;1275;22487;-75
2023/01/18 11:25:59;;;;;;;1.40;0.90;;;;;;;10.92;87.40;97288.28;110451;1275;22227;-78
2023/01/18 11:29:05;;;;;;;1.90;1.20;;;;;;;10.83;86.23;97313.38;110460;1275;22209;-75
2023/01/18 11:31:47;;;;;;;1.10;0.80;;;;;;;10.75;86.18;97328.42;110359;1267;22183;-76
2023/01/18 11:34:30;;;;;;;1.20;0.90;;;;;;;10.70;86.45;97344.11;110451;1275;22186;-76
2023/01/18 11:37:00;;;;;;;1.20;0.90;;;;;;;10.69;87.24;97337.75;110483;1275;22223;-77
2023/01/18 11:39:34;;;;;;;1.80;1.00;;;;;;;10.79;88.06;97329.92;110446;1273;22276;-75
2023/01/18 11:42:30;;;;;;;4.20;1.30;;;;;;;10.87;85.76;97340.25;110436;1275;22224;-76
2023/01/18 11:45:22;;;;;;;1.40;1.00;;;;;;;11.04;84.91;97366.55;110324;1275;22369;-77
2023/01/18 11:47:50;;;;;;;2.50;1.30;;;;;;;11.11;83.26;97360.42;110464;1275;22216;-76
2023/01/18 11:50:37;;;;;;;3.80;1.40;;;;;;;11.06;81.77;97360.17;110453;1260;22269;-76
2023/01/18 11:53:29;;;;;;;3.00;1.50;;;;;;;11.01;81.43;97391.50;110472;1263;22247;-75
2023/01/18 11:56:05;;;;;;;3.60;1.60;;;;;;;10.84;81.72;97396.20;110515;1267;23059;-75
2023/01/18 11:58:34;;;;;;;1.80;0.90;;;;;;;10.70;81.63;97396.60;110445;1275;22235;-76
2023/01/18 12:01:24;;;;;;;1.60;1.00;;;;;;;10.47;82.10;97411.63;110312;1275;22264;-77
2023/01/18 12:04:12;;;;;;;2.90;1.10;;;;;;;10.16;82.21;97431.53;109793;1272;22978;-76
2023/01/18 12:06:53;;;;;;;3.40;1.70;;;;;;;9.91;83.35;97453.19;107384;1275;22525;-77
2023/01/18 12:09:24;;;;;;;1.80;1.20;;;;;;;9.66;84.57;97486.92;107401;1275;22605;-76
2023/01/18 12:11:58;;;;;;;2.60;1.20;;;;;;;9.49;84.84;97490.48;107735;1275;22655;-78
2023/01/18 12:15:03;;;;;;;1.30;0.80;;;;;;;9.38;84.48;97510.54;108198;1275;26696;-79
2023/01/18 12:17:52;;;;;;;2.80;1.10;;;;;;;9.31;86.64;97529.17;107563;1275;23144;-77
2023/01/18 12:21:08;;;;;;;4.00;1.20;;;;;;;9.31;87.45;97519.32;107514;1275;24216;-77
2023/01/18 12:23:56;;;;;;;4.90;1.40;;;;;;;9.32;89.74;97535.48;107474;1269;24221;-77